createdAt,value
2022-12-08T00:01:16.468Z,100880.41
2022-12-08T00:04:18.066Z,100878.88
2022-12-08T00:07:38.620Z,100872.50
2022-12-08T00:10:50.788Z,100880.03
2022-12-08T00:13:52.502Z,100887.94
2022-12-08T00:16:54.947Z,100885.59
2022-12-08T00:19:56.714Z,100887.47
2022-12-08T00:22:58.360Z,100890.63
2022-12-08T00:26:04.957Z,100893.56
2022-12-08T00:29:06.903Z,100895.84
2022-12-08T00:32:08.619Z,100891.19
2022-12-08T00:35:10.236Z,100894.13
2022-12-08T00:38:11.881Z,100890.63
2022-12-08T00:41:40.775Z,100894.41
2022-12-08T00:44:44.085Z,100897.31
2022-12-08T00:47:45.703Z,100901.06
2022-12-08T00:50:47.354Z,100904.13
2022-12-08T00:53:48.964Z,100900.31
2022-12-08T00:56:50.724Z,100881.63
2022-12-08T00:59:52.354Z,100894.63
2022-12-08T01:02:53.995Z,100892.41
2022-12-08T01:05:55.816Z,100887.31
2022-12-08T01:08:58.133Z,100898.53
2022-12-08T01:11:59.882Z,100892.41
2022-12-08T01:15:02.648Z,100893.66
2022-12-08T01:18:04.929Z,100885.16
2022-12-08T01:21:08.378Z,100888.75
2022-12-08T01:24:20.975Z,100882.56
2022-12-08T01:27:22.675Z,100890.91
2022-12-08T01:30:24.508Z,100883.81
2022-12-08T01:33:26.902Z,100890.69
2022-12-08T01:36:31.153Z,100879.91
2022-12-08T01:39:32.858Z,100879.69
2022-12-08T01:42:34.605Z,100871.97
2022-12-08T01:45:36.185Z,100878.09
2022-12-08T01:48:37.843Z,100867.59
2022-12-08T01:51:46.112Z,100869.22
2022-12-08T01:55:12.876Z,100861.09
2022-12-08T01:58:20.922Z,100852.41
2022-12-08T02:01:23.298Z,100848.72
2022-12-08T02:04:25.012Z,100851.78
2022-12-08T02:07:27.367Z,100850.44
2022-12-08T02:10:32.844Z,100856.13
2022-12-08T02:13:34.638Z,100844.84
2022-12-08T02:16:48.756Z,100845.94
2022-12-08T02:19:53.332Z,100843.41
2022-12-08T02:23:11.446Z,100844.28
2022-12-08T02:26:34.782Z,100850.50
2022-12-08T02:30:14.093Z,100850.50
2022-12-08T02:33:39.470Z,100846.19
2022-12-08T02:36:54.073Z,100836.84
2022-12-08T02:40:11.603Z,100836.16
2022-12-08T02:43:20.313Z,100839.84
2022-12-08T02:46:27.269Z,100839.22
2022-12-08T02:49:31.194Z,100837.97
2022-12-08T02:52:32.785Z,100843.16
2022-12-08T02:55:44.512Z,100828.81
2022-12-08T02:59:10.857Z,100837.78
2022-12-08T03:02:30.863Z,100838.44
2022-12-08T03:05:46.878Z,100835.91
2022-12-08T03:08:59.655Z,100831.50
2022-12-08T03:12:17.657Z,100823.25
2022-12-08T03:15:21.689Z,100826.88
2022-12-08T03:18:28.954Z,100817.72
2022-12-08T03:21:33.376Z,100816.31
2022-12-08T03:24:38.683Z,100822.84
2022-12-08T03:27:41.130Z,100818.91
2022-12-08T03:30:47.377Z,100814.16
2022-12-08T03:33:52.537Z,100808.72
2022-12-08T03:36:54.789Z,100807.38
2022-12-08T03:39:56.951Z,100803.50
2022-12-08T03:42:58.851Z,100797.47
2022-12-08T03:46:00.511Z,100790.97
2022-12-08T03:49:02.582Z,100788.06
2022-12-08T03:52:04.418Z,100790.41
2022-12-08T03:55:06.691Z,100794.34
2022-12-08T03:58:08.384Z,100794.00
2022-12-08T04:01:10.039Z,100794.84
2022-12-08T04:04:11.782Z,100804.28
2022-12-08T04:07:13.397Z,100802.72
2022-12-08T04:10:15.872Z,100801.81
2022-12-08T04:13:17.522Z,100801.34
2022-12-08T04:16:21.975Z,100809.88
2022-12-08T04:19:23.832Z,100802.41
2022-12-08T04:22:25.634Z,100808.28
2022-12-08T04:25:27.849Z,100822.94
2022-12-08T04:28:29.794Z,100826.16
2022-12-08T04:31:31.499Z,100812.72
2022-12-08T04:34:33.212Z,100814.66
2022-12-08T04:37:34.960Z,100819.28
2022-12-08T04:40:36.915Z,100813.38
2022-12-08T04:43:38.632Z,100815.75
2022-12-08T04:46:43.404Z,100810.25
2022-12-08T04:49:45.467Z,100812.50
2022-12-08T04:52:47.240Z,100815.34
2022-12-08T04:55:49.715Z,100805.22
2022-12-08T04:58:51.338Z,100804.69
2022-12-08T05:01:53.148Z,100798.81
2022-12-08T05:04:54.896Z,100803.28
2022-12-08T05:07:56.807Z,100797.06
2022-12-08T05:11:06.980Z,100800.28
2022-12-08T05:14:13.379Z,100799.84
2022-12-08T05:17:16.044Z,100810.03
2022-12-08T05:20:17.834Z,100809.22
2022-12-08T05:23:19.462Z,100805.59
2022-12-08T05:26:21.102Z,100807.19
2022-12-08T05:29:22.769Z,100802.25
2022-12-08T05:32:24.442Z,100801.72
2022-12-08T05:35:26.043Z,100794.91
2022-12-08T05:38:27.657Z,100807.72
2022-12-08T05:41:29.350Z,100805.34
2022-12-08T05:44:30.947Z,100804.00
2022-12-08T05:47:36.003Z,100796.44
2022-12-08T05:50:38.194Z,100803.53
2022-12-08T05:53:39.996Z,100799.16
2022-12-08T05:56:42.060Z,100804.97
2022-12-08T05:59:44.268Z,100804.44
2022-12-08T06:02:46.070Z,100804.47
2022-12-08T06:05:48.097Z,100800.06
2022-12-08T06:08:49.960Z,100814.44
2022-12-08T06:11:51.654Z,100797.25
2022-12-08T06:14:53.288Z,100801.75
2022-12-08T06:17:55.005Z,100810.66
2022-12-08T06:21:08.075Z,100805.75
2022-12-08T06:24:09.735Z,100803.41
2022-12-08T06:27:11.462Z,100783.53
2022-12-08T06:30:19.030Z,100794.78
2022-12-08T06:33:22.196Z,100796.59
2022-12-08T06:36:27.053Z,100792.19
2022-12-08T06:39:28.788Z,100795.84
2022-12-08T06:42:44.503Z,100799.81
2022-12-08T06:45:49.804Z,100802.69
2022-12-08T06:48:54.309Z,100800.59
2022-12-08T06:51:55.940Z,100798.81
2022-12-08T06:54:57.825Z,100807.91
2022-12-08T06:57:59.605Z,100807.72
2022-12-08T07:01:09.565Z,100798.63
2022-12-08T07:04:12.187Z,100796.06
2022-12-08T07:07:13.823Z,100797.41
2022-12-08T07:10:15.498Z,100795.91
2022-12-08T07:13:17.147Z,100796.16
2022-12-08T07:16:19.131Z,100795.94
2022-12-08T07:19:20.877Z,100800.91
2022-12-08T07:22:22.472Z,100800.94
2022-12-08T07:25:24.126Z,100796.50
2022-12-08T07:28:25.970Z,100798.91
2022-12-08T07:31:28.914Z,100793.44
2022-12-08T07:34:30.686Z,100792.66
2022-12-08T07:37:36.151Z,100797.91
2022-12-08T07:40:39.150Z,100794.31
2022-12-08T07:43:42.007Z,100779.44
2022-12-08T07:46:43.689Z,100780.81
2022-12-08T07:49:45.474Z,100789.72
2022-12-08T07:52:47.143Z,100811.72
2022-12-08T07:55:48.943Z,100808.84
2022-12-08T07:58:51.097Z,100808.88
2022-12-08T08:02:19.553Z,100812.81
2022-12-08T08:05:16.839Z,100818.34
2022-12-08T08:08:18.914Z,100813.91
2022-12-08T08:11:21.895Z,100818.66
2022-12-08T08:14:23.654Z,100823.63
2022-12-08T08:17:25.387Z,100813.69
2022-12-08T08:20:27.146Z,100810.03
2022-12-08T08:23:28.904Z,100804.31
2022-12-08T08:26:30.608Z,100795.66
2022-12-08T08:29:32.282Z,100788.03
2022-12-08T08:32:34.909Z,100787.00
2022-12-08T08:35:36.568Z,100788.28
2022-12-08T08:38:43.181Z,100781.19
2022-12-08T08:41:44.757Z,100775.44
2022-12-08T08:44:46.614Z,100762.84
2022-12-08T08:47:48.369Z,100755.00
2022-12-08T08:50:50.027Z,100757.63
2022-12-08T08:53:52.083Z,100749.75
2022-12-08T08:56:53.742Z,100737.41
2022-12-08T08:59:55.489Z,100742.09
2022-12-08T09:02:57.174Z,100722.41
2022-12-08T09:06:26.551Z,100722.06
2022-12-08T09:09:35.337Z,100724.88
2022-12-08T09:12:37.006Z,100709.84
2022-12-08T09:15:39.020Z,100697.50
2022-12-08T09:18:41.717Z,100692.81
2022-12-08T09:21:43.616Z,100701.41
2022-12-08T09:25:13.826Z,100700.41
2022-12-08T09:28:23.436Z,100706.00
2022-12-08T09:31:54.982Z,100707.41
2022-12-08T09:35:39.271Z,100692.06
2022-12-08T09:39:07.352Z,100678.13
2022-12-08T09:43:09.134Z,100678.06
2022-12-08T09:46:19.427Z,100675.81
2022-12-08T09:49:28.650Z,100672.16
2022-12-08T09:52:37.614Z,100668.03
2022-12-08T09:56:02.048Z,100674.97
2022-12-08T09:59:06.298Z,100670.31
2022-12-08T10:02:29.646Z,100664.53
2022-12-08T10:05:37.719Z,100665.16
2022-12-08T10:08:55.679Z,100662.19
2022-12-08T10:12:04.225Z,100630.66
2022-12-08T10:15:45.599Z,100631.00
2022-12-08T10:18:57.583Z,100644.28
2022-12-08T10:21:59.600Z,100647.56
2022-12-08T10:25:11.112Z,100635.09
2022-12-08T10:28:13.370Z,100627.84
2022-12-08T10:31:25.536Z,100616.59
2022-12-08T10:34:27.449Z,100592.88
2022-12-08T10:37:29.542Z,100582.59
2022-12-08T10:40:42.201Z,100568.81
2022-12-08T10:43:51.197Z,100567.00
2022-12-08T10:46:52.899Z,100570.41
2022-12-08T10:50:28.940Z,100572.47
2022-12-08T10:57:55.024Z,100581.56
2022-12-08T11:01:19.887Z,100579.63
2022-12-08T11:04:38.141Z,100573.41
2022-12-08T11:07:47.424Z,100564.91
2022-12-08T11:10:49.732Z,100563.41
2022-12-08T11:13:51.914Z,100552.00
2022-12-08T11:17:06.226Z,100535.72
2022-12-08T11:20:11.469Z,100550.66
2022-12-08T11:23:21.514Z,100552.91
2022-12-08T11:26:35.258Z,100539.78
2022-12-08T11:29:37.143Z,100526.75
2022-12-08T11:32:43.043Z,100514.16
2022-12-08T11:35:49.355Z,100513.56
2022-12-08T11:38:55.566Z,100504.09
2022-12-08T11:41:58.789Z,100488.53
2022-12-08T11:45:07.479Z,100503.16
2022-12-08T11:48:43.234Z,100498.00
2022-12-08T11:52:26.897Z,100495.53
2022-12-08T11:55:42.707Z,100508.97
2022-12-08T11:58:57.814Z,100503.91
2022-12-08T12:02:04.315Z,100490.16
2022-12-08T12:06:08.736Z,100476.34
2022-12-08T12:09:13.687Z,100479.25
2022-12-08T12:12:39.481Z,100485.66
2022-12-08T12:16:09.819Z,100485.69
2022-12-08T12:19:17.917Z,100480.19
2022-12-08T12:22:36.570Z,100484.03
2022-12-08T12:25:59.203Z,100484.22
2022-12-08T12:29:23.986Z,100475.09
2022-12-08T12:32:39.787Z,100474.41
2022-12-08T12:35:44.931Z,100471.16
2022-12-08T12:39:01.396Z,100454.50
2022-12-08T12:42:05.629Z,100460.88
2022-12-08T12:45:21.932Z,100465.41
2022-12-08T12:48:25.811Z,100469.66
2022-12-08T12:51:39.660Z,100465.25
2022-12-08T12:54:50.373Z,100461.88
2022-12-08T12:57:57.695Z,100461.25
2022-12-08T13:01:11.575Z,100464.25
2022-12-08T13:04:13.980Z,100464.38
2022-12-08T13:07:26.009Z,100459.97
2022-12-08T13:10:32.817Z,100451.97
2022-12-08T13:13:35.408Z,100449.84
2022-12-08T13:16:40.325Z,100446.97
2022-12-08T13:19:45.348Z,100438.84
2022-12-08T13:22:54.843Z,100435.19
2022-12-08T13:26:17.547Z,100438.50
2022-12-08T13:29:24.642Z,100437.38
2022-12-08T13:32:30.651Z,100446.16
2022-12-08T13:35:42.712Z,100458.00
2022-12-08T13:38:46.643Z,100452.63
2022-12-08T13:41:59.289Z,100446.59
2022-12-08T13:45:39.643Z,100449.84
2022-12-08T13:50:54.697Z,100435.56
2022-12-08T13:59:36.150Z,100443.81
2022-12-08T14:02:47.678Z,100442.03
2022-12-08T14:06:18.297Z,100434.53
2022-12-08T14:09:16.186Z,100433.75
2022-12-08T14:12:24.846Z,100426.28
2022-12-08T14:15:29.152Z,100415.47
2022-12-08T14:18:32.947Z,100419.16
2022-12-08T14:21:36.401Z,100426.47
2022-12-08T14:24:39.582Z,100423.53
2022-12-08T14:27:41.821Z,100434.63
2022-12-08T14:30:43.628Z,100434.34
2022-12-08T14:33:45.406Z,100426.56
2022-12-08T14:36:47.257Z,100423.22
2022-12-08T14:39:49.881Z,100430.59
2022-12-08T14:43:05.682Z,100425.16
2022-12-08T14:46:22.041Z,100424.34
2022-12-08T14:49:38.178Z,100409.22
2022-12-08T14:52:44.701Z,100413.53
2022-12-08T14:55:48.292Z,100419.56
2022-12-08T14:59:02.219Z,100421.44
2022-12-08T15:02:16.140Z,100422.19
2022-12-08T15:05:20.634Z,100416.19
2022-12-08T15:08:22.707Z,100416.25
2022-12-08T15:11:24.320Z,100418.63
2022-12-08T15:14:53.473Z,100424.34
2022-12-08T15:18:02.423Z,100419.94
2022-12-08T15:21:06.792Z,100414.41
2022-12-08T15:24:15.565Z,100397.19
2022-12-08T15:27:22.962Z,100405.56
2022-12-08T15:30:28.743Z,100402.94
2022-12-08T15:33:30.375Z,100398.69
2022-12-08T15:36:32.087Z,100398.13
2022-12-08T15:39:37.725Z,100395.78
2022-12-08T15:42:39.315Z,100397.63
2022-12-08T15:45:50.541Z,100401.75
2022-12-08T15:48:59.540Z,100398.19
2022-12-08T15:52:11.307Z,100402.34
2022-12-08T15:55:14.899Z,100401.81
2022-12-08T16:01:44.495Z,100401.00
2022-12-08T16:05:25.620Z,100395.28
2022-12-08T16:08:38.250Z,100384.34
2022-12-08T16:12:06.340Z,100381.56
2022-12-08T16:18:35.983Z,100376.91
2022-12-08T16:22:29.726Z,100385.84
2022-12-08T16:25:14.714Z,100376.91
2022-12-08T16:31:41.689Z,100391.22
2022-12-08T16:34:43.799Z,100390.66
2022-12-08T16:37:45.770Z,100384.63
2022-12-08T16:41:06.612Z,100384.63
2022-12-08T16:44:08.263Z,100382.28
2022-12-08T16:47:10.738Z,100376.28
2022-12-08T16:50:21.435Z,100384.88
2022-12-08T16:53:23.583Z,100376.03
2022-12-08T16:56:32.218Z,100384.63
2022-12-08T16:59:34.646Z,100380.47
2022-12-08T17:02:36.494Z,100374.78
2022-12-08T17:05:40.835Z,100379.72
2022-12-08T17:08:43.413Z,100372.56
2022-12-08T17:11:45.513Z,100373.59
2022-12-08T17:14:47.193Z,100380.13
2022-12-08T17:17:49.159Z,100383.63
2022-12-08T17:20:50.969Z,100363.22
2022-12-08T17:23:52.758Z,100376.81
2022-12-08T17:26:58.658Z,100372.31
2022-12-08T17:30:00.376Z,100376.75
2022-12-08T17:33:02.064Z,100382.28
2022-12-08T17:36:03.968Z,100393.72
2022-12-08T17:39:12.042Z,100389.28
2022-12-08T17:42:16.553Z,100390.09
2022-12-08T17:45:18.460Z,100387.44
2022-12-08T17:48:20.378Z,100380.78
2022-12-08T17:51:22.579Z,100388.63
2022-12-08T17:54:25.698Z,100395.47
2022-12-08T17:57:27.280Z,100385.19
2022-12-08T18:00:29.244Z,100389.09
2022-12-08T18:03:31.075Z,100391.22
2022-12-08T18:06:33.774Z,100398.63
2022-12-08T18:09:35.670Z,100401.50
2022-12-08T18:12:37.608Z,100402.84
2022-12-08T18:15:39.765Z,100408.38
2022-12-08T18:18:41.747Z,100409.66
2022-12-08T18:21:43.671Z,100403.63
2022-12-08T18:24:47.572Z,100405.41
2022-12-08T18:27:49.452Z,100397.59
2022-12-08T18:30:51.262Z,100398.66
2022-12-08T18:33:53.943Z,100388.41
2022-12-08T18:36:55.543Z,100385.63
2022-12-08T18:39:57.235Z,100388.28
2022-12-08T18:42:59.208Z,100386.94
2022-12-08T18:46:02.340Z,100381.66
2022-12-08T18:49:04.521Z,100368.06
2022-12-08T18:52:06.355Z,100380.63
2022-12-08T18:55:08.952Z,100381.41
2022-12-08T18:58:14.810Z,100383.03
2022-12-08T19:01:16.969Z,100390.13
2022-12-08T19:04:38.548Z,100380.19
2022-12-08T19:07:42.423Z,100394.25
2022-12-08T19:10:44.350Z,100382.44
2022-12-08T19:13:46.541Z,100378.28
2022-12-08T19:16:48.325Z,100379.03
2022-12-08T19:19:50.128Z,100377.47
2022-12-08T19:22:52.007Z,100384.56
2022-12-08T19:25:53.672Z,100386.13
2022-12-08T19:28:56.097Z,100388.72
2022-12-08T19:31:58.145Z,100392.16
2022-12-08T19:35:00.335Z,100389.72
2022-12-08T19:38:02.173Z,100385.56
2022-12-08T19:41:23.998Z,100393.47
2022-12-08T19:44:46.581Z,100398.75
2022-12-08T19:47:48.670Z,100400.34
2022-12-08T19:50:50.695Z,100393.81
2022-12-08T19:53:52.664Z,100403.28
2022-12-08T19:56:54.341Z,100405.84
2022-12-08T19:59:56.514Z,100414.03
2022-12-08T20:02:59.834Z,100406.97
2022-12-08T20:06:01.701Z,100410.25
2022-12-08T20:09:03.606Z,100408.66
2022-12-08T20:12:05.847Z,100408.41
2022-12-08T20:15:10.139Z,100413.41
2022-12-08T20:18:13.676Z,100412.38
2022-12-08T20:21:16.452Z,100399.50
2022-12-08T20:24:18.387Z,100397.09
2022-12-08T20:27:20.294Z,100395.94
2022-12-08T20:30:22.340Z,100393.28
2022-12-08T20:33:24.266Z,100402.19
2022-12-08T20:36:26.382Z,100403.63
2022-12-08T20:39:28.326Z,100387.09
2022-12-08T20:42:30.086Z,100404.34
2022-12-08T20:45:31.956Z,100396.47
2022-12-08T20:48:34.310Z,100401.91
2022-12-08T20:51:39.213Z,100412.66
2022-12-08T20:54:41.390Z,100415.50
2022-12-08T20:57:43.340Z,100405.28
2022-12-08T21:00:45.053Z,100417.91
2022-12-08T21:03:48.670Z,100415.13
2022-12-08T21:06:50.410Z,100423.50
2022-12-08T21:09:52.648Z,100425.44
2022-12-08T21:12:54.722Z,100432.63
2022-12-08T21:15:56.848Z,100432.66
2022-12-08T21:18:58.862Z,100430.75
2022-12-08T21:22:00.711Z,100430.31
2022-12-08T21:25:02.368Z,100428.75
2022-12-08T21:28:04.078Z,100439.78
2022-12-08T21:31:10.775Z,100438.94
2022-12-08T21:34:13.096Z,100443.09
2022-12-08T21:37:14.909Z,100450.94
2022-12-08T21:40:16.735Z,100457.44
2022-12-08T21:43:18.832Z,100458.53
2022-12-08T21:46:21.271Z,100453.81
2022-12-08T21:49:23.217Z,100459.56
2022-12-08T21:52:25.079Z,100457.75
2022-12-08T21:55:26.925Z,100455.09
2022-12-08T21:58:28.619Z,100444.66
2022-12-08T22:01:30.563Z,100441.22
2022-12-08T22:04:32.553Z,100432.81
2022-12-08T22:07:38.328Z,100429.88
2022-12-08T22:10:47.010Z,100434.81
2022-12-08T22:13:48.920Z,100438.81
2022-12-08T22:16:50.721Z,100451.16
2022-12-08T22:19:52.345Z,100436.78
2022-12-08T22:22:54.160Z,100438.09
2022-12-08T22:26:00.599Z,100437.22
2022-12-08T22:29:02.492Z,100443.78
2022-12-08T22:32:04.512Z,100439.44
2022-12-08T22:35:06.577Z,100430.59
2022-12-08T22:38:08.352Z,100421.59
2022-12-08T22:41:10.123Z,100421.06
2022-12-08T22:44:14.080Z,100424.22
2022-12-08T22:47:15.735Z,100437.66
2022-12-08T22:50:18.047Z,100443.25
2022-12-08T22:53:20.080Z,100445.66
2022-12-08T22:56:21.989Z,100440.16
2022-12-08T22:59:23.903Z,100440.41
2022-12-08T23:02:25.557Z,100447.97
2022-12-08T23:05:27.517Z,100430.97
2022-12-08T23:08:29.484Z,100425.47
2022-12-08T23:11:31.823Z,100431.78
2022-12-08T23:14:33.474Z,100450.88
2022-12-08T23:17:35.282Z,100466.06
2022-12-08T23:20:36.980Z,100455.66
2022-12-08T23:23:38.647Z,100447.00
2022-12-08T23:26:40.257Z,100448.34
2022-12-08T23:29:41.884Z,100446.72
2022-12-08T23:32:43.652Z,100435.25
2022-12-08T23:35:45.353Z,100426.56
2022-12-08T23:38:47.285Z,100424.47
2022-12-08T23:41:48.939Z,100423.19
2022-12-08T23:44:50.491Z,100429.44
2022-12-08T23:47:52.536Z,100435.25
2022-12-08T23:50:54.530Z,100455.41
2022-12-08T23:53:56.248Z,100450.44
2022-12-08T23:56:57.879Z,100448.59
2022-12-08T23:59:59.757Z,100452.75
